createdAt,value
2023-04-05T00:00:10.975Z,22.10
2023-04-05T00:02:40.697Z,22.10
2023-04-05T00:05:11.966Z,22.10
2023-04-05T00:07:39.705Z,22.10
2023-04-05T00:10:08.061Z,22.20
2023-04-05T00:12:35.738Z,22.20
2023-04-05T00:15:04.631Z,22.20
2023-04-05T00:17:32.317Z,22.30
2023-04-05T00:20:00.387Z,22.30
2023-04-05T00:22:31.733Z,22.30
2023-04-05T00:24:59.395Z,22.40
2023-04-05T00:27:27.035Z,22.40
2023-04-05T00:29:54.966Z,22.40
2023-04-05T00:32:22.644Z,22.50
2023-04-05T00:34:51.155Z,22.50
2023-04-05T00:37:18.929Z,22.50
2023-04-05T00:39:48.146Z,22.50
2023-04-05T00:42:15.831Z,22.60
2023-04-05T00:44:43.757Z,22.60
2023-04-05T00:47:11.450Z,22.60
2023-04-05T00:49:39.397Z,22.60
2023-04-05T00:52:07.117Z,22.70
2023-04-05T00:54:34.937Z,22.70
2023-04-05T00:57:06.015Z,22.70
2023-04-05T00:59:34.275Z,22.70
2023-04-05T01:02:02.602Z,22.80
2023-04-05T01:04:31.982Z,22.80
2023-04-05T01:07:08.297Z,22.80
2023-04-05T01:09:45.480Z,22.80
2023-04-05T01:12:18.045Z,22.90
2023-04-05T01:14:47.016Z,22.90
2023-04-05T01:17:16.313Z,22.90
2023-04-05T01:19:47.939Z,22.90
2023-04-05T01:22:38.430Z,23.00
2023-04-05T01:25:30.762Z,23.00
2023-04-05T01:28:14.066Z,23.00
2023-04-05T01:30:43.639Z,23.00
2023-04-05T01:33:15.024Z,23.00
2023-04-05T01:35:47.413Z,23.10
2023-04-05T01:38:17.394Z,23.10
2023-04-05T01:40:46.145Z,23.10
2023-04-05T01:43:14.898Z,23.10
2023-04-05T01:45:44.025Z,23.10
2023-04-05T01:48:11.790Z,23.10
2023-04-05T01:50:39.789Z,23.10
2023-04-05T01:53:08.430Z,23.20
2023-04-05T01:55:36.444Z,23.20
2023-04-05T01:58:04.113Z,23.20
2023-04-05T02:00:31.823Z,23.20
2023-04-05T02:03:01.174Z,23.20
2023-04-05T02:05:28.959Z,23.20
2023-04-05T02:07:56.628Z,23.20
2023-04-05T02:10:24.990Z,23.20
2023-04-05T02:12:52.661Z,23.20
2023-04-05T02:15:20.348Z,23.20
2023-04-05T02:17:48.048Z,23.20
2023-04-05T02:20:18.407Z,23.20
2023-04-05T02:22:46.094Z,23.20
2023-04-05T02:25:13.881Z,23.20
2023-04-05T02:27:41.669Z,23.20
2023-04-05T02:30:10.522Z,23.20
2023-04-05T02:32:38.309Z,23.20
2023-04-05T02:35:06.945Z,23.20
2023-04-05T02:37:36.105Z,23.20
2023-04-05T02:40:05.256Z,23.20
2023-04-05T02:42:32.933Z,23.20
2023-04-05T02:45:01.103Z,23.20
2023-04-05T02:47:28.945Z,23.20
2023-04-05T02:49:59.794Z,23.20
2023-04-05T02:52:34.126Z,23.20
2023-04-05T02:55:03.360Z,23.20
2023-04-05T02:57:32.672Z,23.20
2023-04-05T03:00:12.247Z,23.10
2023-04-05T03:02:40.632Z,23.10
2023-04-05T03:05:09.778Z,23.20
2023-04-05T03:07:38.269Z,23.20
2023-04-05T03:10:11.337Z,23.20
2023-04-05T03:12:41.809Z,23.20
2023-04-05T03:15:11.985Z,23.20
2023-04-05T03:17:44.228Z,23.20
2023-04-05T03:20:14.380Z,23.20
2023-04-05T03:22:42.629Z,23.20
2023-04-05T03:25:13.278Z,23.20
2023-04-05T03:27:46.933Z,23.20
2023-04-05T03:30:17.271Z,23.10
2023-04-05T03:32:52.212Z,23.10
2023-04-05T03:35:43.908Z,23.10
2023-04-05T03:38:12.934Z,23.10
2023-04-05T03:40:50.333Z,23.10
2023-04-05T03:43:18.205Z,23.10
2023-04-05T03:45:46.081Z,23.10
2023-04-05T03:48:13.795Z,23.10
2023-04-05T03:50:42.486Z,23.00
2023-04-05T03:53:10.176Z,23.00
2023-04-05T03:55:38.492Z,23.00
2023-04-05T03:58:09.227Z,23.00
2023-04-05T04:00:37.671Z,23.00
2023-04-05T04:03:17.097Z,23.00
2023-04-05T04:05:48.076Z,23.00
2023-04-05T04:08:15.791Z,23.00
2023-04-05T04:10:43.522Z,23.00
2023-04-05T04:13:25.376Z,23.00
2023-04-05T04:16:07.823Z,23.00
2023-04-05T04:19:07.964Z,23.00
2023-04-05T04:21:48.657Z,23.00
2023-04-05T04:24:34.358Z,23.00
2023-04-05T04:27:30.463Z,23.00
2023-04-05T04:30:17.961Z,22.90
2023-04-05T04:33:03.030Z,22.90
2023-04-05T04:35:54.588Z,22.90
2023-04-05T04:38:44.231Z,22.90
2023-04-05T04:41:26.832Z,22.90
2023-04-05T04:44:14.677Z,22.90
2023-04-05T04:47:03.971Z,22.80
2023-04-05T04:50:03.361Z,22.80
2023-04-05T04:52:31.062Z,22.80
2023-04-05T04:54:59.035Z,22.80
2023-04-05T04:57:27.048Z,22.80
2023-04-05T04:59:55.693Z,22.80
2023-04-05T05:02:25.863Z,22.80
2023-04-05T05:04:53.571Z,22.80
2023-04-05T05:07:24.362Z,22.80
2023-04-05T05:09:53.971Z,22.80
2023-04-05T05:12:22.430Z,22.80
2023-04-05T05:14:50.235Z,22.80
2023-04-05T05:17:17.977Z,22.80
2023-04-05T05:19:47.436Z,22.70
2023-04-05T05:22:15.377Z,22.70
2023-04-05T05:24:43.601Z,22.70
2023-04-05T05:27:11.267Z,22.70
2023-04-05T05:29:38.947Z,22.70
2023-04-05T05:32:07.465Z,22.70
2023-04-05T05:34:35.596Z,22.70
2023-04-05T05:37:04.588Z,22.70
2023-04-05T05:39:32.294Z,22.70
2023-04-05T05:41:59.945Z,22.70
2023-04-05T05:44:27.600Z,22.70
2023-04-05T05:46:55.240Z,22.70
2023-04-05T05:49:23.638Z,22.70
2023-04-05T05:51:52.493Z,22.70
2023-04-05T05:54:21.519Z,22.70
2023-04-05T05:56:49.168Z,22.70
2023-04-05T05:59:16.898Z,22.70
2023-04-05T06:01:46.417Z,22.70
2023-04-05T06:04:14.381Z,22.70
2023-04-05T06:06:43.675Z,22.70
2023-04-05T06:09:11.432Z,22.70
2023-04-05T06:11:53.216Z,22.70
2023-04-05T06:14:23.912Z,22.70
2023-04-05T06:16:51.581Z,22.70
2023-04-05T06:19:19.285Z,22.70
2023-04-05T06:21:46.974Z,22.70
2023-04-05T06:24:14.660Z,22.70
2023-04-05T06:26:44.061Z,22.60
2023-04-05T06:29:12.044Z,22.60
2023-04-05T06:31:41.483Z,22.60
2023-04-05T06:34:09.212Z,22.60
2023-04-05T06:36:36.958Z,22.60
2023-04-05T06:39:04.815Z,22.60
2023-04-05T06:41:32.498Z,22.60
2023-04-05T06:44:01.554Z,22.60
2023-04-05T06:46:29.802Z,22.60
2023-04-05T06:48:57.462Z,22.60
2023-04-05T06:51:25.855Z,22.60
2023-04-05T06:53:53.531Z,22.60
2023-04-05T06:56:21.611Z,22.60
2023-04-05T06:58:49.599Z,22.60
2023-04-05T07:01:18.731Z,22.60
2023-04-05T07:03:46.451Z,22.60
2023-04-05T07:06:14.224Z,22.60
2023-04-05T07:08:41.996Z,22.60
2023-04-05T07:11:09.724Z,22.60
2023-04-05T07:13:37.426Z,22.60
2023-04-05T07:16:05.455Z,22.60
2023-04-05T07:18:34.496Z,22.60
2023-04-05T07:21:03.775Z,22.60
2023-04-05T07:23:31.624Z,22.60
2023-04-05T07:26:04.305Z,22.60
2023-04-05T07:28:32.724Z,22.60
2023-04-05T07:31:00.444Z,22.60
2023-04-05T07:33:28.137Z,22.70
2023-04-05T07:35:57.551Z,22.70
2023-04-05T07:38:25.470Z,22.70
2023-04-05T07:40:53.151Z,22.70
2023-04-05T07:43:20.829Z,22.70
2023-04-05T07:45:48.638Z,22.70
2023-04-05T07:48:16.324Z,22.70
2023-04-05T07:50:47.867Z,22.70
2023-04-05T07:53:16.984Z,22.70
2023-04-05T07:55:44.713Z,22.70
2023-04-05T07:58:12.398Z,22.70
2023-04-05T08:00:40.296Z,22.70
2023-04-05T08:03:08.237Z,22.70
2023-04-05T08:05:35.957Z,22.70
2023-04-05T08:08:03.672Z,22.70
2023-04-05T08:10:32.801Z,22.70
2023-04-05T08:13:00.593Z,22.70
2023-04-05T08:15:28.246Z,22.70
2023-04-05T08:17:55.954Z,22.70
2023-04-05T08:20:23.919Z,22.70
2023-04-05T08:22:51.882Z,22.70
2023-04-05T08:25:19.594Z,22.70
2023-04-05T08:27:48.606Z,22.70
2023-04-05T08:30:16.936Z,22.70
2023-04-05T08:32:44.661Z,22.70
2023-04-05T08:35:12.362Z,22.70
2023-04-05T08:37:40.200Z,22.70
2023-04-05T08:40:09.133Z,22.70
2023-04-05T08:42:37.833Z,22.80
2023-04-05T08:45:09.057Z,22.70
2023-04-05T08:47:37.200Z,22.80
2023-04-05T08:50:05.199Z,22.80
2023-04-05T08:52:33.195Z,22.80
2023-04-05T08:55:01.003Z,22.80
2023-04-05T08:57:28.676Z,22.80
2023-04-05T08:59:56.432Z,22.60
2023-04-05T09:02:25.885Z,22.70
2023-04-05T09:04:53.653Z,22.70
2023-04-05T09:07:21.390Z,22.80
2023-04-05T09:09:50.718Z,22.80
2023-04-05T09:12:18.412Z,23.00
2023-04-05T09:14:46.133Z,23.00
2023-04-05T09:17:13.879Z,23.10
2023-04-05T09:19:43.589Z,23.20
2023-04-05T09:22:11.600Z,23.20
2023-04-05T09:24:42.498Z,23.30
2023-04-05T09:27:11.025Z,23.30
2023-04-05T09:29:39.302Z,23.40
2023-04-05T09:32:08.495Z,23.40
2023-04-05T09:34:37.650Z,23.50
2023-04-05T09:37:14.009Z,23.50
2023-04-05T09:39:41.725Z,23.60
2023-04-05T09:42:10.077Z,23.60
2023-04-05T09:44:52.749Z,23.60
2023-04-05T09:47:21.020Z,23.70
2023-04-05T09:49:52.616Z,23.70
2023-04-05T09:52:22.699Z,23.80
2023-04-05T09:54:50.851Z,23.80
2023-04-05T09:57:19.186Z,23.80
2023-04-05T09:59:47.240Z,23.80
2023-04-05T10:02:15.005Z,23.80
2023-04-05T10:04:43.067Z,23.80
2023-04-05T10:07:13.184Z,23.70
2023-04-05T10:09:42.619Z,23.70
2023-04-05T10:12:10.914Z,23.80
2023-04-05T10:14:38.824Z,23.80
2023-04-05T10:17:10.565Z,23.80
2023-04-05T10:19:52.494Z,23.80
2023-04-05T10:22:23.922Z,23.80
2023-04-05T10:24:55.288Z,23.80
2023-04-05T10:27:24.549Z,23.80
2023-04-05T10:29:54.967Z,23.90
2023-04-05T10:32:27.038Z,24.00
2023-04-05T10:34:58.285Z,24.00
2023-04-05T10:37:29.540Z,24.00
2023-04-05T10:39:58.561Z,24.10
2023-04-05T10:42:28.606Z,24.00
2023-04-05T10:45:04.605Z,24.00
2023-04-05T10:47:33.110Z,24.10
2023-04-05T10:50:01.509Z,24.00
2023-04-05T10:52:29.402Z,24.00
2023-04-05T10:54:59.869Z,24.00
2023-04-05T10:57:27.758Z,24.00
2023-04-05T10:59:55.564Z,24.00
2023-04-05T11:02:23.246Z,24.00
2023-04-05T11:04:56.064Z,24.00
2023-04-05T11:07:23.821Z,24.10
2023-04-05T11:09:53.234Z,24.10
2023-04-05T11:12:26.202Z,24.10
2023-04-05T11:14:53.869Z,24.20
2023-04-05T11:17:25.365Z,24.20
2023-04-05T11:19:53.208Z,24.20
2023-04-05T11:22:27.869Z,24.20
2023-04-05T11:24:58.239Z,24.30
2023-04-05T11:27:28.152Z,24.30
2023-04-05T11:29:56.080Z,24.30
2023-04-05T11:32:24.063Z,24.30
2023-04-05T11:35:02.055Z,24.30
2023-04-05T11:37:55.991Z,24.30
2023-04-05T11:40:28.538Z,24.30
2023-04-05T11:43:07.597Z,24.20
2023-04-05T11:45:36.323Z,24.20
2023-04-05T11:48:06.232Z,24.20
2023-04-05T11:50:34.130Z,24.30
2023-04-05T11:53:11.643Z,24.20
2023-04-05T11:55:39.711Z,24.10
2023-04-05T11:58:15.909Z,24.00
2023-04-05T12:00:43.808Z,24.00
2023-04-05T12:03:15.061Z,24.00
2023-04-05T12:05:50.286Z,24.10
2023-04-05T12:08:18.278Z,24.10
2023-04-05T12:10:46.515Z,24.10
2023-04-05T12:13:15.513Z,24.20
2023-04-05T12:15:43.375Z,24.20
2023-04-05T12:18:15.610Z,24.20
2023-04-05T12:20:43.330Z,24.20
2023-04-05T12:23:11.516Z,24.20
2023-04-05T12:25:39.888Z,24.20
2023-04-05T12:28:08.937Z,24.20
2023-04-05T12:30:38.491Z,24.20
2023-04-05T12:33:10.081Z,24.10
2023-04-05T12:35:37.848Z,24.10
2023-04-05T12:38:06.221Z,24.10
2023-04-05T12:40:35.080Z,24.10
2023-04-05T12:43:03.517Z,24.00
2023-04-05T12:45:34.524Z,24.10
2023-04-05T12:48:03.697Z,24.00
2023-04-05T12:50:32.069Z,24.00
2023-04-05T12:53:00.280Z,24.00
2023-04-05T12:55:28.619Z,24.00
2023-04-05T12:57:59.244Z,23.90
2023-04-05T13:00:27.845Z,24.00
2023-04-05T13:02:56.847Z,23.90
2023-04-05T13:05:26.560Z,23.90
2023-04-05T13:07:54.345Z,23.90
2023-04-05T13:10:22.819Z,23.80
2023-04-05T13:12:50.575Z,23.80
2023-04-05T13:15:18.389Z,23.80
2023-04-05T13:17:49.474Z,23.80
2023-04-05T13:20:18.128Z,23.70
2023-04-05T13:22:47.205Z,23.70
2023-04-05T13:25:14.913Z,23.70
2023-04-05T13:27:42.629Z,23.70
2023-04-05T13:30:10.913Z,23.70
2023-04-05T13:32:38.614Z,23.70
2023-04-05T13:35:07.190Z,23.70
2023-04-05T13:37:34.864Z,23.70
2023-04-05T13:40:03.923Z,23.70
2023-04-05T13:42:31.602Z,23.70
2023-04-05T13:44:59.265Z,23.60
2023-04-05T13:47:26.923Z,23.70
2023-04-05T13:49:54.694Z,23.70
2023-04-05T13:52:22.585Z,23.70
2023-04-05T13:55:01.817Z,23.70
2023-04-05T13:57:32.484Z,23.60
2023-04-05T14:00:00.427Z,23.60
2023-04-05T14:02:28.450Z,23.50
2023-04-05T14:04:56.294Z,23.60
2023-04-05T14:07:24.169Z,23.50
2023-04-05T14:09:51.833Z,23.40
2023-04-05T14:12:19.497Z,23.40
2023-04-05T14:14:48.520Z,23.20
2023-04-05T14:17:16.209Z,23.20
2023-04-05T14:19:43.882Z,23.20
2023-04-05T14:22:11.557Z,23.10
2023-04-05T14:24:39.237Z,23.10
2023-04-05T14:27:06.948Z,22.90
2023-04-05T14:29:34.590Z,22.90
2023-04-05T14:32:03.635Z,22.90
2023-04-05T14:34:31.540Z,22.80
2023-04-05T14:37:00.827Z,22.80
2023-04-05T14:39:28.498Z,22.90
2023-04-05T14:41:56.637Z,22.90
2023-04-05T14:44:25.721Z,23.00
2023-04-05T14:46:53.400Z,23.00
2023-04-05T14:49:22.425Z,23.10
2023-04-05T14:51:50.266Z,23.10
2023-04-05T14:54:18.403Z,23.20
2023-04-05T14:56:46.118Z,23.20
2023-04-05T14:59:13.850Z,23.30
2023-04-05T15:01:44.286Z,23.30
2023-04-05T15:04:12.186Z,23.30
2023-04-05T15:06:42.126Z,23.40
2023-04-05T15:09:09.772Z,23.30
2023-04-05T15:11:39.123Z,23.20
2023-04-05T15:14:08.597Z,23.30
2023-04-05T15:16:39.108Z,23.20
2023-04-05T15:19:07.266Z,23.20
2023-04-05T15:21:34.945Z,23.20
2023-04-05T15:24:03.948Z,23.20
2023-04-05T15:26:31.613Z,23.20
2023-04-05T15:28:59.301Z,23.30
2023-04-05T15:31:27.082Z,23.20
2023-04-05T15:33:54.831Z,23.20
2023-04-05T15:36:22.499Z,23.10
2023-04-05T15:38:50.159Z,23.00
2023-04-05T15:41:19.152Z,23.00
2023-04-05T15:43:46.873Z,22.90
2023-04-05T15:46:14.560Z,22.90
2023-04-05T15:48:43.711Z,23.00
2023-04-05T15:51:12.038Z,23.10
2023-04-05T15:53:39.721Z,23.10
2023-04-05T15:56:07.790Z,23.10
2023-04-05T15:58:37.406Z,23.10
2023-04-05T16:01:05.270Z,23.20
2023-04-05T16:03:33.099Z,23.10
2023-04-05T16:06:00.945Z,23.20
2023-04-05T16:08:28.712Z,23.10
2023-04-05T16:10:56.740Z,23.20
2023-04-05T16:13:24.452Z,23.00
2023-04-05T16:15:53.472Z,23.00
2023-04-05T16:18:21.362Z,22.90
2023-04-05T16:20:49.124Z,22.90
2023-04-05T16:23:16.777Z,22.90
2023-04-05T16:25:44.602Z,22.80
2023-04-05T16:28:12.394Z,22.80
2023-04-05T16:30:40.124Z,22.80
2023-04-05T16:33:09.111Z,22.70
2023-04-05T16:35:37.081Z,22.70
2023-04-05T16:38:04.732Z,22.70
2023-04-05T16:40:33.309Z,22.70
2023-04-05T16:43:01.027Z,22.70
2023-04-05T16:45:30.545Z,22.70
2023-04-05T16:47:58.476Z,22.70
2023-04-05T16:50:27.683Z,22.70
2023-04-05T16:52:55.351Z,22.60
2023-04-05T16:55:23.015Z,22.60
2023-04-05T16:57:51.147Z,22.50
2023-04-05T17:00:19.240Z,22.40
2023-04-05T17:02:47.186Z,22.40
2023-04-05T17:05:14.915Z,22.40
2023-04-05T17:07:43.894Z,22.40
2023-04-05T17:10:11.922Z,22.40
2023-04-05T17:12:41.991Z,22.30
2023-04-05T17:15:11.261Z,22.30
2023-04-05T17:17:38.959Z,22.30
2023-04-05T17:20:08.001Z,22.40
2023-04-05T17:22:35.692Z,22.40
2023-04-05T17:25:05.741Z,22.30
2023-04-05T17:27:33.422Z,22.40
2023-04-05T17:30:01.185Z,22.30
2023-04-05T17:32:29.167Z,22.30
2023-04-05T17:34:56.866Z,22.30
2023-04-05T17:37:24.544Z,22.30
2023-04-05T17:39:52.266Z,22.30
2023-04-05T17:42:21.253Z,22.30
2023-04-05T17:44:48.881Z,22.40
2023-04-05T17:47:16.599Z,22.40
2023-04-05T17:49:44.300Z,22.40
2023-04-05T17:52:12.779Z,22.40
2023-04-05T17:54:40.836Z,22.40
2023-04-05T17:57:14.904Z,22.40
2023-04-05T17:59:44.298Z,22.40
2023-04-05T18:02:12.105Z,22.40
2023-04-05T18:04:39.897Z,22.40
2023-04-05T18:07:07.681Z,22.40
2023-04-05T18:10:37.081Z,22.40
2023-04-05T18:13:05.803Z,22.40
2023-04-05T18:16:35.515Z,22.30
2023-04-05T18:19:04.688Z,22.40
2023-04-05T18:21:32.541Z,22.40
2023-04-05T18:24:00.454Z,22.40
2023-04-05T18:26:28.428Z,22.30
2023-04-05T18:28:59.785Z,22.30
2023-04-05T18:31:27.638Z,22.30
2023-04-05T18:33:55.511Z,22.30
2023-04-05T18:36:25.496Z,22.30
2023-04-05T18:38:54.628Z,22.20
2023-04-05T18:41:22.333Z,22.20
2023-04-05T18:43:53.339Z,22.10
2023-04-05T18:46:22.084Z,22.10
2023-04-05T18:48:54.287Z,22.10
2023-04-05T18:51:22.558Z,22.10
2023-04-05T18:53:51.555Z,22.10
2023-04-05T18:56:19.309Z,22.00
2023-04-05T18:58:47.097Z,22.00
2023-04-05T19:01:16.049Z,22.00
2023-04-05T19:03:44.742Z,22.00
2023-04-05T19:06:12.484Z,22.00
2023-04-05T19:08:40.219Z,22.00
2023-04-05T19:11:13.221Z,22.00
2023-04-05T19:13:41.936Z,21.90
2023-04-05T19:16:09.745Z,21.90
2023-04-05T19:18:37.505Z,21.90
2023-04-05T19:21:05.588Z,21.90
2023-04-05T19:23:33.507Z,21.80
2023-04-05T19:26:01.217Z,21.90
2023-04-05T19:28:30.279Z,21.80
2023-04-05T19:30:58.385Z,21.80
2023-04-05T19:33:27.192Z,21.80
2023-04-05T19:35:54.932Z,21.80
2023-04-05T19:38:22.806Z,21.80
2023-04-05T19:40:50.868Z,21.80
2023-04-05T19:43:18.578Z,21.80
2023-04-05T19:45:47.592Z,21.80
2023-04-05T19:48:36.686Z,21.80
2023-04-05T19:51:06.615Z,21.90
2023-04-05T19:53:44.613Z,21.90
2023-04-05T19:56:13.960Z,22.00
2023-04-05T19:58:42.187Z,22.00
2023-04-05T20:01:11.249Z,22.00
2023-04-05T20:03:39.499Z,22.10
2023-04-05T20:06:08.972Z,22.10
2023-04-05T20:08:37.634Z,22.10
2023-04-05T20:11:10.415Z,22.20
2023-04-05T20:13:42.205Z,22.20
2023-04-05T20:16:12.895Z,22.30
2023-04-05T20:18:40.764Z,22.30
2023-04-05T20:21:08.537Z,22.30
2023-04-05T20:23:36.873Z,22.30
2023-04-05T20:26:04.540Z,22.30
2023-04-05T20:28:39.212Z,22.30
2023-04-05T20:31:08.416Z,22.40
2023-04-05T20:33:47.001Z,22.40
2023-04-05T20:36:16.130Z,22.40
2023-04-05T20:38:44.724Z,22.40
2023-04-05T20:41:16.284Z,22.40
2023-04-05T20:43:44.040Z,22.40
2023-04-05T20:46:12.739Z,22.40
2023-04-05T20:48:41.968Z,22.40
2023-04-05T20:51:10.821Z,22.40
2023-04-05T20:53:38.954Z,22.40
2023-04-05T20:56:07.294Z,22.40
2023-04-05T20:58:35.075Z,22.40
2023-04-05T21:01:03.774Z,22.50
2023-04-05T21:03:36.099Z,22.50
2023-04-05T21:06:06.088Z,22.50
2023-04-05T21:08:33.781Z,22.50
2023-04-05T21:11:01.835Z,22.60
2023-04-05T21:13:29.640Z,22.60
2023-04-05T21:15:57.440Z,22.60
2023-04-05T21:18:26.954Z,22.60
2023-04-05T21:20:54.881Z,22.70
2023-04-05T21:23:26.795Z,22.70
2023-04-05T21:25:54.562Z,22.70
2023-04-05T21:28:22.233Z,22.70
2023-04-05T21:30:49.930Z,22.80
2023-04-05T21:33:17.626Z,22.80
2023-04-05T21:35:45.402Z,22.80
2023-04-05T21:38:15.473Z,22.80
2023-04-05T21:40:45.297Z,22.90
2023-04-05T21:43:13.043Z,22.90
2023-04-05T21:45:40.856Z,22.90
2023-04-05T21:48:08.658Z,23.00
2023-04-05T21:50:37.040Z,23.00
2023-04-05T21:53:05.240Z,23.00
2023-04-05T21:55:33.010Z,23.10
2023-04-05T21:58:02.049Z,23.10
2023-04-05T22:00:29.792Z,23.20
2023-04-05T22:02:57.516Z,23.20
2023-04-05T22:05:36.328Z,23.30
2023-04-05T22:08:07.110Z,23.30
2023-04-05T22:10:35.320Z,23.30
2023-04-05T22:13:04.317Z,23.40
2023-04-05T22:15:32.018Z,23.40
2023-04-05T22:17:59.926Z,23.40
2023-04-05T22:20:27.621Z,23.50
2023-04-05T22:22:55.810Z,23.60
2023-04-05T22:25:23.490Z,23.60
2023-04-05T22:27:51.202Z,23.60
2023-04-05T22:30:20.878Z,23.70
2023-04-05T22:32:49.104Z,23.70
2023-04-05T22:35:17.027Z,23.70
2023-04-05T22:37:44.683Z,23.80
2023-04-05T22:40:13.421Z,23.80
2023-04-05T22:42:41.988Z,23.80
2023-04-05T22:45:10.513Z,23.90
2023-04-05T22:47:39.512Z,23.90
2023-04-05T22:50:08.337Z,24.00
2023-04-05T22:52:36.012Z,24.00
2023-04-05T22:55:04.322Z,24.10
2023-04-05T22:57:32.367Z,24.10
2023-04-05T23:00:00.033Z,24.20
2023-04-05T23:02:29.353Z,24.20
2023-04-05T23:04:58.716Z,24.30
2023-04-05T23:07:26.515Z,24.30
2023-04-05T23:09:54.210Z,24.40
2023-04-05T23:12:21.899Z,24.40
2023-04-05T23:14:50.803Z,24.40
2023-04-05T23:17:18.553Z,24.50
2023-04-05T23:19:46.271Z,24.50
2023-04-05T23:22:15.338Z,24.60
2023-04-05T23:24:43.033Z,24.70
2023-04-05T23:27:10.918Z,24.70
2023-04-05T23:29:38.578Z,24.70
2023-04-05T23:32:06.853Z,24.80
2023-04-05T23:34:34.572Z,24.80
2023-04-05T23:37:02.271Z,24.90
2023-04-05T23:39:31.271Z,24.90
2023-04-05T23:41:59.165Z,25.00
2023-04-05T23:44:26.989Z,25.10
2023-04-05T23:46:54.760Z,25.10
2023-04-05T23:49:22.971Z,25.10
2023-04-05T23:51:51.069Z,25.20
2023-04-05T23:54:18.731Z,25.20
2023-04-05T23:56:47.723Z,25.30
2023-04-05T23:59:15.575Z,25.40
